sensor_id;sensor_type;location;lat;lon;timestamp;temperature;humidity
20773;DHT22;10546;50.674;4.616;2023-05-10T06:06:33;11.90;99.90
20773;DHT22;10546;50.674;4.616;2023-05-10T06:08:59;11.70;99.90
20773;DHT22;10546;50.674;4.616;2023-05-10T06:11:25;11.70;99.90
20773;DHT22;10546;50.674;4.616;2023-05-10T06:13:51;11.80;99.90
20773;DHT22;10546;50.674;4.616;2023-05-10T06:16:17;11.80;99.90
20773;DHT22;10546;50.674;4.616;2023-05-10T06:18:43;11.80;99.90
20773;DHT22;10546;50.674;4.616;2023-05-10T06:21:08;11.80;99.90
20773;DHT22;10546;50.674;4.616;2023-05-10T06:23:34;11.80;99.90
20773;DHT22;10546;50.674;4.616;2023-05-10T06:26:01;11.90;99.90
20773;DHT22;10546;50.674;4.616;2023-05-10T06:28:26;12.00;99.90
20773;DHT22;10546;50.674;4.616;2023-05-10T06:30:52;11.90;99.90
20773;DHT22;10546;50.674;4.616;2023-05-10T06:33:18;11.90;99.90
20773;DHT22;10546;50.674;4.616;2023-05-10T06:35:43;11.90;99.90
20773;DHT22;10546;50.674;4.616;2023-05-10T06:38:09;12.00;99.90
20773;DHT22;10546;50.674;4.616;2023-05-10T06:40:34;12.00;99.90
20773;DHT22;10546;50.674;4.616;2023-05-10T06:43:01;12.10;99.90
20773;DHT22;10546;50.674;4.616;2023-05-10T06:45:27;12.10;99.90
20773;DHT22;10546;50.674;4.616;2023-05-10T06:47:52;12.10;99.90
20773;DHT22;10546;50.674;4.616;2023-05-10T06:50:18;12.20;99.90
20773;DHT22;10546;50.674;4.616;2023-05-10T06:52:44;12.20;99.90
20773;DHT22;10546;50.674;4.616;2023-05-10T06:55:09;12.20;99.90
20773;DHT22;10546;50.674;4.616;2023-05-10T06:57:35;12.20;99.90
20773;DHT22;10546;50.674;4.616;2023-05-10T07:00:02;12.20;99.90
20773;DHT22;10546;50.674;4.616;2023-05-10T07:02:29;12.20;99.90
20773;DHT22;10546;50.674;4.616;2023-05-10T07:04:55;12.10;99.90
20773;DHT22;10546;50.674;4.616;2023-05-10T07:07:20;12.20;99.90
20773;DHT22;10546;50.674;4.616;2023-05-10T07:09:46;12.20;99.90
20773;DHT22;10546;50.674;4.616;2023-05-10T07:12:12;12.20;99.90
20773;DHT22;10546;50.674;4.616;2023-05-10T07:14:37;12.20;99.90
20773;DHT22;10546;50.674;4.616;2023-05-10T07:17:03;12.20;99.90
20773;DHT22;10546;50.674;4.616;2023-05-10T07:19:29;12.30;99.90
20773;DHT22;10546;50.674;4.616;2023-05-10T07:21:55;12.40;99.90
20773;DHT22;10546;50.674;4.616;2023-05-10T07:24:20;12.30;99.90
20773;DHT22;10546;50.674;4.616;2023-05-10T07:26:46;12.30;99.90
20773;DHT22;10546;50.674;4.616;2023-05-10T07:29:12;12.30;99.90
20773;DHT22;10546;50.674;4.616;2023-05-10T07:31:37;12.30;99.90
20773;DHT22;10546;50.674;4.616;2023-05-10T07:34:03;12.30;99.90
20773;DHT22;10546;50.674;4.616;2023-05-10T07:36:29;12.40;99.90
20773;DHT22;10546;50.674;4.616;2023-05-10T07:38:54;12.50;99.90
20773;DHT22;10546;50.674;4.616;2023-05-10T07:41:21;12.50;99.90
20773;DHT22;10546;50.674;4.616;2023-05-10T07:43:47;12.50;99.90
20773;DHT22;10546;50.674;4.616;2023-05-10T07:46:13;12.40;99.90
20773;DHT22;10546;50.674;4.616;2023-05-10T07:48:38;12.50;99.90
20773;DHT22;10546;50.674;4.616;2023-05-10T07:51:06;12.40;99.90
20773;DHT22;10546;50.674;4.616;2023-05-10T07:53:34;12.40;99.90
20773;DHT22;10546;50.674;4.616;2023-05-10T07:56:24;12.40;99.90
20773;DHT22;10546;50.674;4.616;2023-05-10T07:58:51;12.50;99.90
20773;DHT22;10546;50.674;4.616;2023-05-10T08:01:17;12.50;99.90
20773;DHT22;10546;50.674;4.616;2023-05-10T08:03:43;12.60;99.90
20773;DHT22;10546;50.674;4.616;2023-05-10T08:06:08;12.70;99.90
20773;DHT22;10546;50.674;4.616;2023-05-10T08:08:34;12.80;99.90
20773;DHT22;10546;50.674;4.616;2023-05-10T08:11:00;12.80;99.90
20773;DHT22;10546;50.674;4.616;2023-05-10T08:13:25;12.90;99.90
20773;DHT22;10546;50.674;4.616;2023-05-10T08:15:51;12.90;99.90
20773;DHT22;10546;50.674;4.616;2023-05-10T08:18:18;12.90;99.90
20773;DHT22;10546;50.674;4.616;2023-05-10T08:20:44;12.80;99.90
20773;DHT22;10546;50.674;4.616;2023-05-10T08:23:12;12.90;99.90
20773;DHT22;10546;50.674;4.616;2023-05-10T08:25:38;12.80;99.90
20773;DHT22;10546;50.674;4.616;2023-05-10T08:28:03;12.90;99.90
20773;DHT22;10546;50.674;4.616;2023-05-10T08:30:29;13.00;99.90
20773;DHT22;10546;50.674;4.616;2023-05-10T08:32:55;12.90;99.90
20773;DHT22;10546;50.674;4.616;2023-05-10T08:35:21;12.80;99.90
20773;DHT22;10546;50.674;4.616;2023-05-10T08:37:46;12.80;99.90
20773;DHT22;10546;50.674;4.616;2023-05-10T08:40:12;12.70;99.90
20773;DHT22;10546;50.674;4.616;2023-05-10T08:42:41;12.70;99.90
20773;DHT22;10546;50.674;4.616;2023-05-10T08:45:10;12.80;99.90
20773;DHT22;10546;50.674;4.616;2023-05-10T08:47:36;12.90;99.90
20773;DHT22;10546;50.674;4.616;2023-05-10T08:50:03;12.80;99.90
20773;DHT22;10546;50.674;4.616;2023-05-10T08:52:30;12.80;99.90
20773;DHT22;10546;50.674;4.616;2023-05-10T08:54:56;12.90;99.90
20773;DHT22;10546;50.674;4.616;2023-05-10T08:57:22;12.90;99.90
20773;DHT22;10546;50.674;4.616;2023-05-10T08:59:47;13.00;99.90
20773;DHT22;10546;50.674;4.616;2023-05-10T09:02:14;12.90;99.90
20773;DHT22;10546;50.674;4.616;2023-05-10T09:04:39;12.90;99.90
20773;DHT22;10546;50.674;4.616;2023-05-10T09:07:06;12.80;99.90
20773;DHT22;10546;50.674;4.616;2023-05-10T09:09:33;12.80;99.90
20773;DHT22;10546;50.674;4.616;2023-05-10T09:12:00;12.70;99.90
20773;DHT22;10546;50.674;4.616;2023-05-10T09:14:26;12.80;99.90
20773;DHT22;10546;50.674;4.616;2023-05-10T09:16:54;12.80;99.90
20773;DHT22;10546;50.674;4.616;2023-05-10T09:19:20;13.00;99.90
20773;DHT22;10546;50.674;4.616;2023-05-10T09:21:46;13.10;99.90
20773;DHT22;10546;50.674;4.616;2023-05-10T09:24:12;13.10;99.90
20773;DHT22;10546;50.674;4.616;2023-05-10T09:26:46;13.10;99.90
20773;DHT22;10546;50.674;4.616;2023-05-10T09:29:13;13.10;99.90
20773;DHT22;10546;50.674;4.616;2023-05-10T09:31:46;13.20;99.90
20773;DHT22;10546;50.674;4.616;2023-05-10T09:34:19;13.20;99.90
20773;DHT22;10546;50.674;4.616;2023-05-10T09:36:52;13.30;99.90
20773;DHT22;10546;50.674;4.616;2023-05-10T09:39:18;13.20;99.90
20773;DHT22;10546;50.674;4.616;2023-05-10T09:41:44;13.20;99.90
20773;DHT22;10546;50.674;4.616;2023-05-10T09:44:10;13.20;99.90
20773;DHT22;10546;50.674;4.616;2023-05-10T09:46:35;13.30;99.90
20773;DHT22;10546;50.674;4.616;2023-05-10T09:49:02;13.20;99.90
20773;DHT22;10546;50.674;4.616;2023-05-10T09:51:27;13.30;99.90
20773;DHT22;10546;50.674;4.616;2023-05-10T09:54:16;13.40;99.90
20773;DHT22;10546;50.674;4.616;2023-05-10T09:56:42;13.40;99.90
20773;DHT22;10546;50.674;4.616;2023-05-10T09:59:11;13.30;99.90
20773;DHT22;10546;50.674;4.616;2023-05-10T10:01:37;13.20;99.90
20773;DHT22;10546;50.674;4.616;2023-05-10T10:04:08;13.20;99.90
20773;DHT22;10546;50.674;4.616;2023-05-10T10:06:36;13.20;99.90
20773;DHT22;10546;50.674;4.616;2023-05-10T10:09:02;13.20;99.90
20773;DHT22;10546;50.674;4.616;2023-05-10T10:11:28;13.10;99.90
20773;DHT22;10546;50.674;4.616;2023-05-10T10:13:54;13.00;99.90
20773;DHT22;10546;50.674;4.616;2023-05-10T10:16:20;13.00;99.90
20773;DHT22;10546;50.674;4.616;2023-05-10T10:18:46;13.00;99.90
20773;DHT22;10546;50.674;4.616;2023-05-10T10:21:14;13.00;99.90
20773;DHT22;10546;50.674;4.616;2023-05-10T10:23:40;13.00;99.90
20773;DHT22;10546;50.674;4.616;2023-05-10T10:26:10;13.00;99.90
20773;DHT22;10546;50.674;4.616;2023-05-10T10:28:59;13.00;99.90
20773;DHT22;10546;50.674;4.616;2023-05-10T10:31:41;13.00;99.90
20773;DHT22;10546;50.674;4.616;2023-05-10T10:34:29;13.00;99.90
20773;DHT22;10546;50.674;4.616;2023-05-10T10:36:57;13.20;99.90
20773;DHT22;10546;50.674;4.616;2023-05-10T10:39:23;13.30;99.90
20773;DHT22;10546;50.674;4.616;2023-05-10T10:41:56;13.30;99.90
20773;DHT22;10546;50.674;4.616;2023-05-10T10:49:43;13.50;99.90
20773;DHT22;10546;50.674;4.616;2023-05-10T10:52:25;13.40;99.90
20773;DHT22;10546;50.674;4.616;2023-05-10T10:57:34;13.30;99.90
20773;DHT22;10546;50.674;4.616;2023-05-10T11:00:32;13.30;99.90
20773;DHT22;10546;50.674;4.616;2023-05-10T11:07:58;13.40;99.90
20773;DHT22;10546;50.674;4.616;2023-05-10T11:10:25;13.40;99.90
20773;DHT22;10546;50.674;4.616;2023-05-10T11:13:08;13.50;99.90
20773;DHT22;10546;50.674;4.616;2023-05-10T11:15:39;13.50;99.90
20773;DHT22;10546;50.674;4.616;2023-05-10T11:18:18;13.50;99.90
20773;DHT22;10546;50.674;4.616;2023-05-10T11:20:50;13.50;99.90
20773;DHT22;10546;50.674;4.616;2023-05-10T11:23:16;13.50;99.90
20773;DHT22;10546;50.674;4.616;2023-05-10T11:25:43;13.50;99.90
20773;DHT22;10546;50.674;4.616;2023-05-10T11:28:12;13.50;99.90
20773;DHT22;10546;50.674;4.616;2023-05-10T11:30:39;13.50;99.90
20773;DHT22;10546;50.674;4.616;2023-05-10T11:33:06;13.60;99.90
20773;DHT22;10546;50.674;4.616;2023-05-10T11:35:38;13.40;99.90
20773;DHT22;10546;50.674;4.616;2023-05-10T11:38:11;13.70;99.90
20773;DHT22;10546;50.674;4.616;2023-05-10T11:40:37;13.60;99.90
20773;DHT22;10546;50.674;4.616;2023-05-10T11:43:04;13.60;99.90
20773;DHT22;10546;50.674;4.616;2023-05-10T11:45:32;13.60;99.90
20773;DHT22;10546;50.674;4.616;2023-05-10T11:47:59;13.70;99.90
20773;DHT22;10546;50.674;4.616;2023-05-10T11:50:25;13.70;99.90
20773;DHT22;10546;50.674;4.616;2023-05-10T11:52:54;13.80;99.90
20773;DHT22;10546;50.674;4.616;2023-05-10T11:55:20;13.80;99.90
20773;DHT22;10546;50.674;4.616;2023-05-10T11:57:46;13.60;99.90
20773;DHT22;10546;50.674;4.616;2023-05-10T12:00:15;13.70;99.90
20773;DHT22;10546;50.674;4.616;2023-05-10T12:02:41;13.70;99.90
20773;DHT22;10546;50.674;4.616;2023-05-10T12:05:07;13.80;99.90
20773;DHT22;10546;50.674;4.616;2023-05-10T12:07:33;14.00;99.90
20773;DHT22;10546;50.674;4.616;2023-05-10T12:10:12;14.00;99.90
20773;DHT22;10546;50.674;4.616;2023-05-10T12:12:47;14.00;99.90
20773;DHT22;10546;50.674;4.616;2023-05-10T12:15:21;14.10;99.90
20773;DHT22;10546;50.674;4.616;2023-05-10T12:17:48;14.10;99.90
20773;DHT22;10546;50.674;4.616;2023-05-10T12:22:45;14.30;99.90
20773;DHT22;10546;50.674;4.616;2023-05-10T12:25:10;14.50;99.90
20773;DHT22;10546;50.674;4.616;2023-05-10T12:27:36;14.60;99.90
20773;DHT22;10546;50.674;4.616;2023-05-10T12:30:02;14.60;99.90
20773;DHT22;10546;50.674;4.616;2023-05-10T12:32:44;14.80;99.90
20773;DHT22;10546;50.674;4.616;2023-05-10T12:35:09;14.80;99.90
20773;DHT22;10546;50.674;4.616;2023-05-10T12:37:36;15.10;99.90
20773;DHT22;10546;50.674;4.616;2023-05-10T12:40:08;15.40;99.90
20773;DHT22;10546;50.674;4.616;2023-05-10T12:42:56;15.30;99.90
20773;DHT22;10546;50.674;4.616;2023-05-10T12:45:22;15.20;99.90
20773;DHT22;10546;50.674;4.616;2023-05-10T12:47:48;15.10;99.90
20773;DHT22;10546;50.674;4.616;2023-05-10T12:50:14;15.20;99.90
20773;DHT22;10546;50.674;4.616;2023-05-10T12:52:39;15.10;99.90
20773;DHT22;10546;50.674;4.616;2023-05-10T12:55:05;15.10;99.90
20773;DHT22;10546;50.674;4.616;2023-05-10T12:57:32;15.10;99.90
20773;DHT22;10546;50.674;4.616;2023-05-10T12:59:57;15.40;99.90
20773;DHT22;10546;50.674;4.616;2023-05-10T13:02:23;15.50;99.90
20773;DHT22;10546;50.674;4.616;2023-05-10T13:04:50;15.60;99.90
20773;DHT22;10546;50.674;4.616;2023-05-10T13:07:15;15.40;99.90
20773;DHT22;10546;50.674;4.616;2023-05-10T13:09:41;15.50;99.90
20773;DHT22;10546;50.674;4.616;2023-05-10T13:12:07;15.70;99.90
20773;DHT22;10546;50.674;4.616;2023-05-10T13:14:32;15.80;99.90
20773;DHT22;10546;50.674;4.616;2023-05-10T13:16:58;16.10;99.90
20773;DHT22;10546;50.674;4.616;2023-05-10T13:19:24;16.40;99.90
20773;DHT22;10546;50.674;4.616;2023-05-10T13:21:50;16.50;99.90
20773;DHT22;10546;50.674;4.616;2023-05-10T13:24:16;16.40;99.90
20773;DHT22;10546;50.674;4.616;2023-05-10T13:26:42;16.60;99.90
20773;DHT22;10546;50.674;4.616;2023-05-10T13:29:08;16.60;99.90
20773;DHT22;10546;50.674;4.616;2023-05-10T13:31:49;16.60;99.90
20773;DHT22;10546;50.674;4.616;2023-05-10T13:34:16;16.40;99.90
20773;DHT22;10546;50.674;4.616;2023-05-10T13:36:42;16.50;99.90
20773;DHT22;10546;50.674;4.616;2023-05-10T13:39:07;16.40;99.90
20773;DHT22;10546;50.674;4.616;2023-05-10T13:41:34;16.20;99.90
20773;DHT22;10546;50.674;4.616;2023-05-10T13:44:00;16.30;99.90
20773;DHT22;10546;50.674;4.616;2023-05-10T13:46:36;16.30;99.90
20773;DHT22;10546;50.674;4.616;2023-05-10T13:49:06;16.40;99.90
20773;DHT22;10546;50.674;4.616;2023-05-10T13:51:46;16.60;99.90
20773;DHT22;10546;50.674;4.616;2023-05-10T13:54:15;16.40;99.90
20773;DHT22;10546;50.674;4.616;2023-05-10T13:56:54;16.30;99.90
20773;DHT22;10546;50.674;4.616;2023-05-10T13:59:22;16.10;99.90
20773;DHT22;10546;50.674;4.616;2023-05-10T14:01:48;16.10;99.90
20773;DHT22;10546;50.674;4.616;2023-05-10T14:04:14;16.20;99.90
20773;DHT22;10546;50.674;4.616;2023-05-10T14:06:39;16.40;99.90
20773;DHT22;10546;50.674;4.616;2023-05-10T14:09:05;16.50;99.90
20773;DHT22;10546;50.674;4.616;2023-05-10T14:11:31;16.40;99.90
20773;DHT22;10546;50.674;4.616;2023-05-10T14:13:56;16.30;99.90
20773;DHT22;10546;50.674;4.616;2023-05-10T14:16:22;16.40;99.90
20773;DHT22;10546;50.674;4.616;2023-05-10T14:18:48;16.30;99.90
20773;DHT22;10546;50.674;4.616;2023-05-10T14:21:13;16.40;99.90
20773;DHT22;10546;50.674;4.616;2023-05-10T14:23:39;16.50;99.90
20773;DHT22;10546;50.674;4.616;2023-05-10T14:26:05;16.60;99.90
20773;DHT22;10546;50.674;4.616;2023-05-10T14:28:31;16.50;99.90
20773;DHT22;10546;50.674;4.616;2023-05-10T14:30:58;16.50;99.90
20773;DHT22;10546;50.674;4.616;2023-05-10T14:33:24;16.50;99.90
20773;DHT22;10546;50.674;4.616;2023-05-10T14:35:50;16.40;99.90
20773;DHT22;10546;50.674;4.616;2023-05-10T14:38:16;16.40;99.90
20773;DHT22;10546;50.674;4.616;2023-05-10T14:40:42;16.30;99.90
20773;DHT22;10546;50.674;4.616;2023-05-10T14:43:08;16.40;99.90
20773;DHT22;10546;50.674;4.616;2023-05-10T14:45:34;16.60;99.90
20773;DHT22;10546;50.674;4.616;2023-05-10T14:48:00;16.30;99.90
20773;DHT22;10546;50.674;4.616;2023-05-10T14:50:26;16.30;99.90
20773;DHT22;10546;50.674;4.616;2023-05-10T14:52:51;16.20;99.90
20773;DHT22;10546;50.674;4.616;2023-05-10T14:55:17;16.20;99.90
20773;DHT22;10546;50.674;4.616;2023-05-10T14:57:42;16.30;99.90
20773;DHT22;10546;50.674;4.616;2023-05-10T15:00:10;16.20;99.90
20773;DHT22;10546;50.674;4.616;2023-05-10T15:02:35;16.20;99.90
20773;DHT22;10546;50.674;4.616;2023-05-10T15:05:02;16.10;99.90
20773;DHT22;10546;50.674;4.616;2023-05-10T15:07:27;16.10;99.90
20773;DHT22;10546;50.674;4.616;2023-05-10T15:09:53;15.90;99.90
20773;DHT22;10546;50.674;4.616;2023-05-10T15:12:19;16.10;99.90
20773;DHT22;10546;50.674;4.616;2023-05-10T15:14:46;16.20;99.90
20773;DHT22;10546;50.674;4.616;2023-05-10T15:17:11;16.30;99.90
20773;DHT22;10546;50.674;4.616;2023-05-10T15:19:37;16.40;99.90
20773;DHT22;10546;50.674;4.616;2023-05-10T15:22:04;16.40;99.90
20773;DHT22;10546;50.674;4.616;2023-05-10T15:24:30;16.40;99.90
20773;DHT22;10546;50.674;4.616;2023-05-10T15:26:56;16.40;99.90
20773;DHT22;10546;50.674;4.616;2023-05-10T15:29:21;16.30;99.90
20773;DHT22;10546;50.674;4.616;2023-05-10T15:31:48;16.40;99.90
20773;DHT22;10546;50.674;4.616;2023-05-10T15:34:14;16.40;99.90
20773;DHT22;10546;50.674;4.616;2023-05-10T15:36:40;16.30;99.90
20773;DHT22;10546;50.674;4.616;2023-05-10T15:39:06;16.20;99.90
20773;DHT22;10546;50.674;4.616;2023-05-10T15:41:31;16.30;99.90
20773;DHT22;10546;50.674;4.616;2023-05-10T15:43:58;16.20;99.90
20773;DHT22;10546;50.674;4.616;2023-05-10T15:46:27;16.20;99.90
20773;DHT22;10546;50.674;4.616;2023-05-10T15:48:53;16.10;99.90
20773;DHT22;10546;50.674;4.616;2023-05-10T15:51:19;16.00;99.90
20773;DHT22;10546;50.674;4.616;2023-05-10T15:53:45;15.80;99.90
20773;DHT22;10546;50.674;4.616;2023-05-10T15:56:10;15.80;99.90
20773;DHT22;10546;50.674;4.616;2023-05-10T15:58:37;15.80;99.90
20773;DHT22;10546;50.674;4.616;2023-05-10T16:01:03;15.80;99.90
20773;DHT22;10546;50.674;4.616;2023-05-10T16:03:35;15.70;99.90
20773;DHT22;10546;50.674;4.616;2023-05-10T16:06:01;15.40;99.90
20773;DHT22;10546;50.674;4.616;2023-05-10T16:08:27;15.30;99.90
20773;DHT22;10546;50.674;4.616;2023-05-10T16:10:55;15.30;99.90
20773;DHT22;10546;50.674;4.616;2023-05-10T16:13:21;15.30;99.90
20773;DHT22;10546;50.674;4.616;2023-05-10T16:15:47;15.30;99.90
20773;DHT22;10546;50.674;4.616;2023-05-10T16:18:12;15.40;99.90
20773;DHT22;10546;50.674;4.616;2023-05-10T16:20:38;15.50;99.90
20773;DHT22;10546;50.674;4.616;2023-05-10T16:23:08;15.80;99.90
20773;DHT22;10546;50.674;4.616;2023-05-10T16:25:34;15.70;99.90
20773;DHT22;10546;50.674;4.616;2023-05-10T16:28:00;15.70;99.90
20773;DHT22;10546;50.674;4.616;2023-05-10T16:30:26;15.80;99.90
20773;DHT22;10546;50.674;4.616;2023-05-10T16:32:58;15.90;99.90
20773;DHT22;10546;50.674;4.616;2023-05-10T16:35:26;15.90;99.90
20773;DHT22;10546;50.674;4.616;2023-05-10T16:37:54;15.90;99.90
20773;DHT22;10546;50.674;4.616;2023-05-10T16:40:20;16.00;99.90
20773;DHT22;10546;50.674;4.616;2023-05-10T16:42:46;15.90;99.90
20773;DHT22;10546;50.674;4.616;2023-05-10T16:45:11;16.00;99.90
20773;DHT22;10546;50.674;4.616;2023-05-10T16:47:38;15.90;99.90
20773;DHT22;10546;50.674;4.616;2023-05-10T16:50:05;15.80;99.90
20773;DHT22;10546;50.674;4.616;2023-05-10T16:52:33;15.70;99.90
20773;DHT22;10546;50.674;4.616;2023-05-10T16:54:59;15.70;99.90
20773;DHT22;10546;50.674;4.616;2023-05-10T16:57:24;15.50;99.90
20773;DHT22;10546;50.674;4.616;2023-05-10T16:59:50;15.60;99.90
20773;DHT22;10546;50.674;4.616;2023-05-10T17:02:19;15.50;99.90
20773;DHT22;10546;50.674;4.616;2023-05-10T17:04:45;15.60;99.90
20773;DHT22;10546;50.674;4.616;2023-05-10T17:07:11;15.80;99.90
20773;DHT22;10546;50.674;4.616;2023-05-10T17:09:38;15.80;99.90
20773;DHT22;10546;50.674;4.616;2023-05-10T17:12:04;15.80;99.90
20773;DHT22;10546;50.674;4.616;2023-05-10T17:14:29;15.90;99.90
20773;DHT22;10546;50.674;4.616;2023-05-10T17:16:55;15.80;99.90
20773;DHT22;10546;50.674;4.616;2023-05-10T17:19:21;15.80;99.90
20773;DHT22;10546;50.674;4.616;2023-05-10T17:21:47;15.80;99.90
20773;DHT22;10546;50.674;4.616;2023-05-10T17:24:13;15.80;99.90
20773;DHT22;10546;50.674;4.616;2023-05-10T17:26:38;15.80;99.90
20773;DHT22;10546;50.674;4.616;2023-05-10T17:29:04;16.00;99.90
20773;DHT22;10546;50.674;4.616;2023-05-10T17:31:29;16.00;99.90
20773;DHT22;10546;50.674;4.616;2023-05-10T17:33:56;15.90;99.90
20773;DHT22;10546;50.674;4.616;2023-05-10T17:36:22;15.90;99.90
20773;DHT22;10546;50.674;4.616;2023-05-10T17:38:48;15.90;99.90
20773;DHT22;10546;50.674;4.616;2023-05-10T17:41:13;15.90;99.90
20773;DHT22;10546;50.674;4.616;2023-05-10T17:43:39;16.00;99.90
20773;DHT22;10546;50.674;4.616;2023-05-10T17:46:05;15.90;99.90
20773;DHT22;10546;50.674;4.616;2023-05-10T17:48:30;15.90;99.90
20773;DHT22;10546;50.674;4.616;2023-05-10T17:50:56;15.90;99.90
20773;DHT22;10546;50.674;4.616;2023-05-10T17:53:22;16.00;99.90
20773;DHT22;10546;50.674;4.616;2023-05-10T17:55:49;16.00;99.90
20773;DHT22;10546;50.674;4.616;2023-05-10T17:58:15;16.10;99.90
20773;DHT22;10546;50.674;4.616;2023-05-10T18:00:41;16.10;99.90
20773;DHT22;10546;50.674;4.616;2023-05-10T18:03:06;16.00;99.90
20773;DHT22;10546;50.674;4.616;2023-05-10T18:05:36;16.10;99.90
20773;DHT22;10546;50.674;4.616;2023-05-10T18:08:03;16.10;99.90
20773;DHT22;10546;50.674;4.616;2023-05-10T18:10:29;16.10;99.90
20773;DHT22;10546;50.674;4.616;2023-05-10T18:12:55;16.00;99.90
20773;DHT22;10546;50.674;4.616;2023-05-10T18:15:23;15.90;99.90
20773;DHT22;10546;50.674;4.616;2023-05-10T18:17:48;16.00;99.90
20773;DHT22;10546;50.674;4.616;2023-05-10T18:20:14;15.90;99.90
20773;DHT22;10546;50.674;4.616;2023-05-10T18:22:40;15.90;99.90
20773;DHT22;10546;50.674;4.616;2023-05-10T18:25:06;15.90;99.90
20773;DHT22;10546;50.674;4.616;2023-05-10T18:27:32;15.90;99.90
20773;DHT22;10546;50.674;4.616;2023-05-10T18:29:57;15.80;99.90
20773;DHT22;10546;50.674;4.616;2023-05-10T18:32:23;15.80;99.90
20773;DHT22;10546;50.674;4.616;2023-05-10T18:34:49;15.80;99.90
20773;DHT22;10546;50.674;4.616;2023-05-10T18:37:14;15.70;99.90
20773;DHT22;10546;50.674;4.616;2023-05-10T18:39:40;15.60;99.90
20773;DHT22;10546;50.674;4.616;2023-05-10T18:42:07;15.60;99.90
20773;DHT22;10546;50.674;4.616;2023-05-10T18:44:33;15.60;99.90
20773;DHT22;10546;50.674;4.616;2023-05-10T18:46:59;15.60;99.90
20773;DHT22;10546;50.674;4.616;2023-05-10T18:49:25;15.50;99.90
20773;DHT22;10546;50.674;4.616;2023-05-10T18:51:51;15.50;99.90
20773;DHT22;10546;50.674;4.616;2023-05-10T18:54:17;15.50;99.90
20773;DHT22;10546;50.674;4.616;2023-05-10T18:56:43;15.50;99.90
20773;DHT22;10546;50.674;4.616;2023-05-10T18:59:11;15.50;99.90
20773;DHT22;10546;50.674;4.616;2023-05-10T19:01:40;15.50;99.90
20773;DHT22;10546;50.674;4.616;2023-05-10T19:04:06;15.60;99.90
20773;DHT22;10546;50.674;4.616;2023-05-10T19:06:33;15.50;99.90
20773;DHT22;10546;50.674;4.616;2023-05-10T19:08:59;15.40;99.90
20773;DHT22;10546;50.674;4.616;2023-05-10T19:11:24;15.40;99.90
20773;DHT22;10546;50.674;4.616;2023-05-10T19:13:50;15.50;99.90
20773;DHT22;10546;50.674;4.616;2023-05-10T19:16:17;15.40;99.90
20773;DHT22;10546;50.674;4.616;2023-05-10T19:18:45;15.40;99.90
20773;DHT22;10546;50.674;4.616;2023-05-10T19:21:11;15.40;99.90
20773;DHT22;10546;50.674;4.616;2023-05-10T19:23:40;15.40;99.90
20773;DHT22;10546;50.674;4.616;2023-05-10T19:26:07;15.40;99.90
20773;DHT22;10546;50.674;4.616;2023-05-10T19:28:33;15.40;99.90
20773;DHT22;10546;50.674;4.616;2023-05-10T19:31:04;15.40;99.90
20773;DHT22;10546;50.674;4.616;2023-05-10T19:33:29;15.30;99.90
20773;DHT22;10546;50.674;4.616;2023-05-10T19:35:55;15.30;99.90
20773;DHT22;10546;50.674;4.616;2023-05-10T19:38:22;15.30;99.90
20773;DHT22;10546;50.674;4.616;2023-05-10T19:40:49;15.30;99.90
20773;DHT22;10546;50.674;4.616;2023-05-10T19:43:15;15.30;99.90
20773;DHT22;10546;50.674;4.616;2023-05-10T19:45:41;15.30;99.90
20773;DHT22;10546;50.674;4.616;2023-05-10T19:48:07;15.10;99.90
20773;DHT22;10546;50.674;4.616;2023-05-10T19:50:33;15.20;99.90
20773;DHT22;10546;50.674;4.616;2023-05-10T19:52:58;15.10;99.90
20773;DHT22;10546;50.674;4.616;2023-05-10T19:55:29;15.10;99.90
20773;DHT22;10546;50.674;4.616;2023-05-10T19:57:59;15.10;99.90
20773;DHT22;10546;50.674;4.616;2023-05-10T20:00:25;15.20;99.90
20773;DHT22;10546;50.674;4.616;2023-05-10T20:02:54;15.10;99.90
20773;DHT22;10546;50.674;4.616;2023-05-10T20:05:20;14.90;99.90
20773;DHT22;10546;50.674;4.616;2023-05-10T20:07:46;14.70;99.90
20773;DHT22;10546;50.674;4.616;2023-05-10T20:10:12;14.70;99.90
20773;DHT22;10546;50.674;4.616;2023-05-10T20:12:38;14.60;99.90
20773;DHT22;10546;50.674;4.616;2023-05-10T20:15:06;14.60;99.90
20773;DHT22;10546;50.674;4.616;2023-05-10T20:17:32;14.60;99.90
20773;DHT22;10546;50.674;4.616;2023-05-10T20:19:57;14.60;99.90
20773;DHT22;10546;50.674;4.616;2023-05-10T20:22:24;14.60;99.90
20773;DHT22;10546;50.674;4.616;2023-05-10T20:24:50;14.70;99.90
20773;DHT22;10546;50.674;4.616;2023-05-10T20:27:16;14.60;99.90
20773;DHT22;10546;50.674;4.616;2023-05-10T20:29:42;14.70;99.90
20773;DHT22;10546;50.674;4.616;2023-05-10T20:32:08;14.70;99.90
20773;DHT22;10546;50.674;4.616;2023-05-10T20:34:34;14.80;99.90
20773;DHT22;10546;50.674;4.616;2023-05-10T20:37:01;14.80;99.90
20773;DHT22;10546;50.674;4.616;2023-05-10T20:39:26;14.80;99.90
20773;DHT22;10546;50.674;4.616;2023-05-10T20:41:53;14.80;99.90
20773;DHT22;10546;50.674;4.616;2023-05-10T20:44:19;14.80;99.90
20773;DHT22;10546;50.674;4.616;2023-05-10T20:46:45;14.70;99.90
20773;DHT22;10546;50.674;4.616;2023-05-10T20:49:11;14.80;99.90
20773;DHT22;10546;50.674;4.616;2023-05-10T20:51:43;14.70;99.90
20773;DHT22;10546;50.674;4.616;2023-05-10T20:54:08;14.70;99.90
20773;DHT22;10546;50.674;4.616;2023-05-10T20:56:34;14.60;99.90
20773;DHT22;10546;50.674;4.616;2023-05-10T20:59:00;14.60;99.90
20773;DHT22;10546;50.674;4.616;2023-05-10T21:01:26;14.60;99.90
20773;DHT22;10546;50.674;4.616;2023-05-10T21:03:51;14.60;99.90
20773;DHT22;10546;50.674;4.616;2023-05-10T21:06:17;14.60;99.90
20773;DHT22;10546;50.674;4.616;2023-05-10T21:08:43;14.50;99.90
20773;DHT22;10546;50.674;4.616;2023-05-10T21:11:08;14.50;99.90
20773;DHT22;10546;50.674;4.616;2023-05-10T21:13:34;14.50;99.90
20773;DHT22;10546;50.674;4.616;2023-05-10T21:16:02;14.50;99.90
20773;DHT22;10546;50.674;4.616;2023-05-10T21:18:28;14.60;99.90
20773;DHT22;10546;50.674;4.616;2023-05-10T21:20:57;14.50;99.90
20773;DHT22;10546;50.674;4.616;2023-05-10T21:23:23;14.40;99.90
20773;DHT22;10546;50.674;4.616;2023-05-10T21:25:49;14.50;99.90
20773;DHT22;10546;50.674;4.616;2023-05-10T21:28:14;14.50;99.90
20773;DHT22;10546;50.674;4.616;2023-05-10T21:30:40;14.50;99.90
20773;DHT22;10546;50.674;4.616;2023-05-10T21:33:06;14.40;99.90
20773;DHT22;10546;50.674;4.616;2023-05-10T21:35:32;14.40;99.90
20773;DHT22;10546;50.674;4.616;2023-05-10T21:37:57;14.40;99.90
20773;DHT22;10546;50.674;4.616;2023-05-10T21:40:23;14.40;99.90
